Time;durP1;ratioP1;P1;durP2;ratioP2;P2;SDS_P1;SDS_P2;PMS_P1;PMS_P2;Temp;Humidity;BMP_temperature;BMP_pressure;BME280_temperature;BME280_humidity;BME280_pressure;Samples;Min_cycle;Max_cycle;Signal;HPM_P1;HPM_P2
2023/08/26 00:01:11;;;;;;;13.15;9.23;;;20.60;99.90;;;;;;7372164;19;20127;-69
2023/08/26 00:03:41;;;;;;;12.65;8.07;;;20.60;99.90;;;;;;7374250;19;20996;-68
2023/08/26 00:06:11;;;;;;;9.82;8.60;;;20.60;99.90;;;;;;7373645;19;20188;-70
2023/08/26 00:08:44;;;;;;;13.82;9.30;;;20.60;99.90;;;;;;7372851;19;20018;-69
2023/08/26 00:11:14;;;;;;;13.95;8.75;;;20.70;99.90;;;;;;7373406;19;20022;-69
2023/08/26 00:13:44;;;;;;;13.43;9.07;;;20.50;99.90;;;;;;7375751;19;20015;-69
2023/08/26 00:16:14;;;;;;;12.27;8.20;;;20.50;99.90;;;;;;7374332;19;20028;-69
2023/08/26 00:18:45;;;;;;;10.63;8.57;;;20.60;99.90;;;;;;7372846;19;20014;-69
2023/08/26 00:21:21;;;;;;;12.75;8.32;;;20.50;99.90;;;;;;7374686;19;20011;-69
2023/08/26 00:23:53;;;;;;;11.23;8.80;;;20.50;99.90;;;;;;7373414;19;20605;-70
2023/08/26 00:26:23;;;;;;;11.32;8.80;;;20.40;99.90;;;;;;7373138;19;20007;-70
2023/08/26 00:28:54;;;;;;;10.60;8.80;;;20.40;99.90;;;;;;7372743;19;20078;-70
2023/08/26 00:31:24;;;;;;;8.70;7.70;;;20.40;99.90;;;;;;7372247;19;20014;-70
2023/08/26 00:33:54;;;;;;;11.30;8.52;;;20.30;99.90;;;;;;7371945;19;20025;-69
2023/08/26 00:36:24;;;;;;;10.90;6.95;;;20.40;99.90;;;;;;7371508;19;20014;-69
2023/08/26 00:38:57;;;;;;;9.85;7.13;;;20.40;99.90;;;;;;7374893;19;20011;-69
2023/08/26 00:41:27;;;;;;;12.32;7.38;;;20.30;99.90;;;;;;7373339;19;20505;-70
2023/08/26 00:43:57;;;;;;;14.02;7.38;;;20.30;99.90;;;;;;7371824;19;20125;-70
2023/08/26 00:46:27;;;;;;;14.95;7.40;;;20.40;99.90;;;;;;7374156;19;20010;-70
2023/08/26 00:48:57;;;;;;;7.68;6.45;;;20.20;99.90;;;;;;7372603;19;20010;-70
2023/08/26 00:51:27;;;;;;;9.02;6.55;;;20.10;99.90;;;;;;7372396;19;20026;-68
2023/08/26 00:54:00;;;;;;;8.95;7.05;;;20.00;99.90;;;;;;7370295;19;20015;-68
2023/08/26 00:56:31;;;;;;;10.02;7.00;;;20.00;99.90;;;;;;7371118;19;20165;-68
2023/08/26 00:59:01;;;;;;;11.70;7.10;;;20.00;99.90;;;;;;7369512;19;20014;-68
2023/08/26 01:01:34;;;;;;;9.65;7.35;;;19.80;99.90;;;;;;7371243;19;20606;-68
2023/08/26 01:04:04;;;;;;;10.80;6.57;;;19.80;99.90;;;;;;7371298;19;20018;-68
2023/08/26 01:06:34;;;;;;;7.93;6.88;;;19.80;99.90;;;;;;7370579;19;20422;-68
2023/08/26 01:09:07;;;;;;;10.82;7.15;;;19.70;99.90;;;;;;7371355;19;20018;-68
2023/08/26 01:11:44;;;;;;;10.68;7.15;;;19.60;99.90;;;;;;7370578;19;20014;-69
2023/08/26 01:14:21;;;;;;;11.70;7.63;;;19.60;99.90;;;;;;7369814;19;20388;-71
2023/08/26 01:16:52;;;;;;;11.65;6.95;;;19.50;99.90;;;;;;7371222;19;20082;-69
2023/08/26 01:19:32;;;;;;;13.43;7.63;;;19.50;99.90;;;;;;7370966;19;20389;-69
2023/08/26 01:22:08;;;;;;;9.80;7.03;;;19.50;99.90;;;;;;7372191;19;20013;-70
2023/08/26 01:24:42;;;;;;;8.75;6.95;;;19.30;99.90;;;;;;7370384;19;20496;-69
2023/08/26 01:27:12;;;;;;;9.48;7.53;;;19.40;99.90;;;;;;7372768;19;20014;-70
2023/08/26 01:29:42;;;;;;;10.68;7.05;;;19.40;99.90;;;;;;7371093;19;20054;-71
2023/08/26 01:32:24;;;;;;;8.63;7.00;;;19.30;99.90;;;;;;7367706;19;20166;-69
2023/08/26 01:34:58;;;;;;;9.18;7.25;;;19.40;99.90;;;;;;7371162;19;20045;-70
2023/08/26 01:37:29;;;;;;;11.75;7.85;;;19.40;99.90;;;;;;7371641;19;20045;-70
2023/08/26 01:40:05;;;;;;;11.20;7.18;;;19.40;99.90;;;;;;7369590;19;20014;-71
2023/08/26 01:42:38;;;;;;;13.40;8.50;;;19.40;99.90;;;;;;7370278;19;20044;-70
2023/08/26 01:45:11;;;;;;;11.15;7.90;;;19.40;99.90;;;;;;7369152;19;20020;-68
2023/08/26 01:47:41;;;;;;;11.85;7.93;;;19.50;99.90;;;;;;7369628;19;20137;-70
2023/08/26 01:50:12;;;;;;;14.90;7.85;;;19.40;99.90;;;;;;7367028;19;20089;-69
2023/08/26 01:52:42;;;;;;;11.70;7.63;;;19.40;99.90;;;;;;7367886;19;20030;-70
2023/08/26 01:55:15;;;;;;;8.95;6.90;;;19.40;99.90;;;;;;7365302;19;20030;-70
2023/08/26 01:57:45;;;;;;;9.13;6.80;;;19.40;99.90;;;;;;7369078;19;20097;-69
2023/08/26 02:00:16;;;;;;;9.23;6.47;;;19.40;99.90;;;;;;7367129;19;20370;-69
2023/08/26 02:02:46;;;;;;;9.43;6.65;;;19.40;99.90;;;;;;7367625;19;20006;-70
2023/08/26 02:05:17;;;;;;;8.43;6.45;;;19.40;99.90;;;;;;7367911;19;20007;-68
2023/08/26 02:07:47;;;;;;;10.68;7.00;;;19.40;99.90;;;;;;7368454;19;20505;-69
2023/08/26 02:10:19;;;;;;;8.63;7.13;;;19.40;99.90;;;;;;7368572;19;20500;-70
2023/08/26 02:12:49;;;;;;;9.18;6.68;;;19.40;99.90;;;;;;7368839;19;20020;-70
2023/08/26 02:15:19;;;;;;;8.50;6.88;;;19.40;99.90;;;;;;7369423;19;20088;-69
2023/08/26 02:17:49;;;;;;;11.15;7.18;;;19.40;99.90;;;;;;7369469;19;20475;-70
2023/08/26 02:20:19;;;;;;;9.18;7.25;;;19.30;99.90;;;;;;7367595;19;20466;-70
2023/08/26 02:22:49;;;;;;;11.10;7.07;;;19.40;99.90;;;;;;7368784;19;20416;-70
2023/08/26 02:25:21;;;;;;;10.82;6.72;;;19.40;99.90;;;;;;7368136;19;20031;-71
2023/08/26 02:27:51;;;;;;;12.38;7.20;;;19.40;99.90;;;;;;7367991;19;20497;-71
2023/08/26 02:30:21;;;;;;;9.75;7.07;;;19.40;99.90;;;;;;7366818;19;20010;-70
2023/08/26 02:32:51;;;;;;;13.25;7.07;;;19.30;99.90;;;;;;7368549;19;20018;-71
2023/08/26 02:35:21;;;;;;;9.77;6.38;;;19.30;99.90;;;;;;7350643;19;20054;-70
2023/08/26 02:37:51;;;;;;;10.63;6.32;;;19.20;99.90;;;;;;7367683;19;20066;-70
2023/08/26 02:40:23;;;;;;;8.70;6.60;;;19.20;99.90;;;;;;7367842;19;20014;-70
2023/08/26 02:42:53;;;;;;;9.52;7.10;;;19.30;99.90;;;;;;7364160;19;20034;-69
2023/08/26 02:45:23;;;;;;;8.93;6.55;;;19.20;99.90;;;;;;7367680;19;20011;-70
2023/08/26 02:47:53;;;;;;;9.73;6.78;;;19.10;99.90;;;;;;7369385;19;20035;-69
2023/08/26 02:50:24;;;;;;;14.30;6.70;;;19.10;99.90;;;;;;7372081;19;20031;-70
2023/08/26 02:52:54;;;;;;;9.27;6.95;;;19.10;99.90;;;;;;7371034;19;20072;-70
2023/08/26 02:55:27;;;;;;;9.05;6.68;;;19.10;99.90;;;;;;7370461;19;20111;-70
2023/08/26 02:57:57;;;;;;;10.35;7.15;;;19.10;99.90;;;;;;7382236;19;20089;-69
2023/08/26 03:00:27;;;;;;;12.50;7.25;;;19.10;99.90;;;;;;7372160;19;20017;-70
2023/08/26 03:02:57;;;;;;;10.50;7.13;;;19.00;99.90;;;;;;7375814;19;20028;-69
2023/08/26 03:05:27;;;;;;;10.82;7.43;;;19.00;99.90;;;;;;7382818;19;20537;-69
2023/08/26 03:07:57;;;;;;;12.10;7.78;;;19.00;99.90;;;;;;7391341;19;20073;-69
2023/08/26 03:10:30;;;;;;;10.10;6.90;;;19.00;99.90;;;;;;7392463;19;20493;-69
2023/08/26 03:13:01;;;;;;;11.20;7.25;;;18.90;99.90;;;;;;7374398;19;20472;-70
2023/08/26 03:15:31;;;;;;;8.48;6.88;;;18.90;99.90;;;;;;7393690;19;20637;-70
2023/08/26 03:18:04;;;;;;;11.10;6.72;;;18.90;99.90;;;;;;7394167;19;20011;-71
2023/08/26 03:20:34;;;;;;;8.95;6.47;;;18.90;99.90;;;;;;7387227;19;20018;-70
2023/08/26 03:23:05;;;;;;;12.52;7.03;;;18.90;99.90;;;;;;7394624;19;20427;-70
2023/08/26 03:25:40;;;;;;;10.75;7.25;;;18.80;99.90;;;;;;7392747;19;20014;-70
2023/08/26 03:28:11;;;;;;;10.02;7.13;;;18.90;99.90;;;;;;7390643;19;20014;-70
2023/08/26 03:30:40;;;;;;;12.00;7.82;;;18.90;99.90;;;;;;7390855;19;20110;-70
2023/08/26 03:33:10;;;;;;;10.35;7.28;;;18.90;99.90;;;;;;7382532;19;20015;-70
2023/08/26 03:35:42;;;;;;;11.77;6.97;;;18.90;99.90;;;;;;7383211;19;20483;-71
2023/08/26 03:38:12;;;;;;;13.40;8.50;;;18.90;99.90;;;;;;7377861;19;20016;-69
2023/08/26 03:40:44;;;;;;;16.15;8.70;;;18.90;99.90;;;;;;7382540;19;20007;-70
2023/08/26 03:43:14;;;;;;;14.38;8.85;;;18.80;99.90;;;;;;7388545;19;20015;-70
2023/08/26 03:45:44;;;;;;;15.95;8.50;;;18.80;99.90;;;;;;7390275;19;20038;-70
2023/08/26 03:48:14;;;;;;;13.38;7.70;;;18.70;99.90;;;;;;7392992;19;20014;-69
2023/08/26 03:50:52;;;;;;;10.85;7.47;;;18.70;99.90;;;;;;7380965;19;21139;-70
2023/08/26 03:53:22;;;;;;;10.32;7.45;;;18.70;99.90;;;;;;7380650;19;20017;-69
2023/08/26 03:55:55;;;;;;;10.68;7.68;;;18.70;99.90;;;;;;7376728;19;20018;-69
2023/08/26 03:58:26;;;;;;;10.32;7.30;;;18.70;99.90;;;;;;7372116;19;20136;-69
2023/08/26 04:01:02;;;;;;;11.20;7.28;;;18.60;99.90;;;;;;7385477;19;20018;-70
2023/08/26 04:03:32;;;;;;;11.52;7.28;;;18.60;99.90;;;;;;7378909;19;20036;-69
2023/08/26 04:06:03;;;;;;;14.95;7.03;;;18.60;99.90;;;;;;7373735;19;20035;-71
2023/08/26 04:08:34;;;;;;;11.27;7.55;;;18.60;99.90;;;;;;7373353;19;20091;-69
2023/08/26 04:11:07;;;;;;;11.90;8.23;;;18.60;99.90;;;;;;7369421;19;20040;-69
2023/08/26 04:13:37;;;;;;;9.57;7.72;;;18.60;99.90;;;;;;7371698;19;20522;-69
2023/08/26 04:16:07;;;;;;;10.52;7.90;;;18.60;99.90;;;;;;7371927;19;20017;-69
2023/08/26 04:18:37;;;;;;;10.68;8.00;;;18.60;99.90;;;;;;7369834;19;20014;-70
2023/08/26 04:21:07;;;;;;;16.67;8.25;;;18.60;99.90;;;;;;7372047;19;20014;-69
2023/08/26 04:23:37;;;;;;;10.32;7.95;;;18.60;99.90;;;;;;7371378;19;20086;-69
2023/08/26 04:26:10;;;;;;;10.25;7.93;;;18.60;99.90;;;;;;7372444;19;20013;-69
2023/08/26 04:28:40;;;;;;;10.77;7.40;;;18.60;99.90;;;;;;7371373;19;20013;-70
2023/08/26 04:31:10;;;;;;;9.43;6.75;;;18.60;99.90;;;;;;7370996;19;20526;-70
2023/08/26 04:33:40;;;;;;;11.80;7.35;;;18.60;99.90;;;;;;7370024;19;20006;-69
2023/08/26 04:36:10;;;;;;;9.18;6.75;;;18.70;99.90;;;;;;7369779;19;20025;-69
2023/08/26 04:38:40;;;;;;;10.90;7.53;;;18.70;99.90;;;;;;7370273;19;20027;-69
2023/08/26 04:41:14;;;;;;;15.95;7.25;;;18.70;99.90;;;;;;7369463;19;20010;-69
2023/08/26 04:43:44;;;;;;;10.13;8.10;;;18.60;99.90;;;;;;7370635;19;20492;-70
2023/08/26 04:46:14;;;;;;;12.15;8.32;;;18.60;99.90;;;;;;7370067;19;20006;-69
2023/08/26 04:48:44;;;;;;;14.20;7.57;;;18.60;99.90;;;;;;7370465;19;20010;-69
2023/08/26 04:51:14;;;;;;;13.30;8.30;;;18.60;99.90;;;;;;7371235;19;20015;-69
2023/08/26 04:53:44;;;;;;;10.88;7.72;;;18.60;99.90;;;;;;7371335;19;20006;-68
2023/08/26 04:56:16;;;;;;;12.98;7.85;;;18.60;99.90;;;;;;7368755;19;20478;-70
2023/08/26 04:58:46;;;;;;;12.63;7.07;;;18.70;99.90;;;;;;7371069;19;20018;-69
2023/08/26 05:01:16;;;;;;;10.13;7.32;;;18.60;99.90;;;;;;7370073;19;20058;-69
2023/08/26 05:03:46;;;;;;;9.10;7.50;;;18.70;99.90;;;;;;7371058;19;20025;-70
2023/08/26 05:06:16;;;;;;;15.13;7.47;;;18.60;99.90;;;;;;7370935;19;20014;-69
2023/08/26 05:08:46;;;;;;;11.13;7.00;;;18.60;99.90;;;;;;7370415;19;20018;-70
2023/08/26 05:11:19;;;;;;;11.68;7.35;;;18.60;99.90;;;;;;7370456;19;20387;-69
2023/08/26 05:13:49;;;;;;;13.05;7.00;;;18.60;99.90;;;;;;7369545;19;20044;-69
2023/08/26 05:16:19;;;;;;;13.32;7.03;;;18.50;99.90;;;;;;7371255;19;20010;-69
2023/08/26 05:18:49;;;;;;;13.75;7.65;;;18.50;99.90;;;;;;7370359;19;20017;-69
2023/08/26 05:21:22;;;;;;;13.45;7.20;;;18.50;99.90;;;;;;7371044;19;20011;-69
2023/08/26 05:23:52;;;;;;;10.02;6.90;;;18.50;99.90;;;;;;7368718;19;20015;-69
2023/08/26 05:26:25;;;;;;;11.75;6.80;;;18.50;99.90;;;;;;7369849;19;20622;-67
2023/08/26 05:28:55;;;;;;;11.00;6.55;;;18.60;99.90;;;;;;7368794;19;20002;-69
2023/08/26 05:31:25;;;;;;;8.55;6.72;;;18.50;99.90;;;;;;7369150;19;20015;-70
2023/08/26 05:33:55;;;;;;;8.57;6.93;;;18.70;99.90;;;;;;7368912;19;20021;-68
2023/08/26 05:36:26;;;;;;;11.32;7.07;;;19.10;99.90;;;;;;7369215;19;20029;-69
2023/08/26 05:38:56;;;;;;;11.55;6.75;;;18.90;95.20;;;;;;7369831;19;20053;-70
2023/08/26 05:41:30;;;;;;;12.80;6.05;;;18.80;96.70;;;;;;7369932;19;20021;-70
2023/08/26 05:43:59;;;;;;;8.05;6.30;;;18.90;99.40;;;;;;7369843;19;20117;-69
2023/08/26 05:46:29;;;;;;;9.65;6.10;;;18.90;92.40;;;;;;7368995;19;20011;-70
2023/08/26 05:49:00;;;;;;;11.05;6.57;;;18.90;81.80;;;;;;7369436;19;20084;-70
2023/08/26 05:51:30;;;;;;;10.38;5.93;;;19.20;87.80;;;;;;7368486;19;20010;-69
2023/08/26 05:53:59;;;;;;;8.50;6.20;;;19.10;69.10;;;;;;7369348;19;20085;-70
2023/08/26 05:56:32;;;;;;;14.02;6.70;;;19.10;69.00;;;;;;7368745;19;20010;-69
2023/08/26 05:59:02;;;;;;;10.52;6.45;;;19.20;68.50;;;;;;7368306;19;20046;-69
2023/08/26 06:01:32;;;;;;;9.07;5.60;;;19.20;62.80;;;;;;7369159;19;20073;-69
2023/08/26 06:04:02;;;;;;;9.45;5.43;;;19.10;56.30;;;;;;7369262;19;20034;-69
2023/08/26 06:06:32;;;;;;;9.25;6.18;;;18.90;49.60;;;;;;7369667;19;20483;-70
2023/08/26 06:09:02;;;;;;;9.65;5.65;;;18.90;64.80;;;;;;7370183;19;20006;-69
2023/08/26 06:11:35;;;;;;;10.77;5.85;;;18.80;50.50;;;;;;7369366;19;20017;-70
2023/08/26 06:14:05;;;;;;;9.75;5.82;;;19.00;55.10;;;;;;7369049;19;20030;-69
2023/08/26 06:16:35;;;;;;;12.85;5.82;;;19.20;53.60;;;;;;7369507;19;20117;-70
2023/08/26 06:19:05;;;;;;;9.13;5.60;;;19.40;60.90;;;;;;7369591;19;20533;-70
2023/08/26 06:21:35;;;;;;;9.45;5.50;;;19.40;47.60;;;;;;7369986;19;20716;-71
2023/08/26 06:24:05;;;;;;;7.20;5.15;;;19.40;43.60;;;;;;7368862;19;20012;-70
2023/08/26 06:26:37;;;;;;;8.82;5.63;;;19.20;39.90;;;;;;7370723;19;20496;-70
2023/08/26 06:29:07;;;;;;;10.48;5.68;;;19.40;43.20;;;;;;7367491;19;20585;-69
2023/08/26 06:31:37;;;;;;;8.63;5.78;;;19.60;42.30;;;;;;7367791;19;20014;-69
2023/08/26 06:34:07;;;;;;;10.70;5.72;;;19.80;34.50;;;;;;7368744;19;20015;-69
2023/08/26 06:36:38;;;;;;;7.13;5.10;;;20.10;19.60;;;;;;7367505;19;20018;-69
2023/08/26 06:39:08;;;;;;;6.95;5.15;;;20.10;19.40;;;;;;7367854;19;20015;-69
2023/08/26 06:41:40;;;;;;;9.43;5.28;;;19.80;15.20;;;;;;7371016;19;20018;-69
2023/08/26 06:44:11;;;;;;;8.30;5.65;;;19.50;21.50;;;;;;7375447;19;20040;-69
2023/08/26 06:46:41;;;;;;;9.57;5.25;;;19.50;25.50;;;;;;7375903;19;20708;-68
2023/08/26 06:49:11;;;;;;;8.30;4.75;;;19.80;33.20;;;;;;7374632;19;20019;-69
2023/08/26 06:51:41;;;;;;;8.20;4.75;;;19.60;16.50;;;;;;7374790;19;20143;-69
2023/08/26 06:54:11;;;;;;;8.02;4.80;;;19.80;23.80;;;;;;7374108;19;20017;-69
2023/08/26 06:56:43;;;;;;;7.78;4.97;;;19.90;19.60;;;;;;7374762;19;20011;-69
2023/08/26 06:59:13;;;;;;;7.07;4.80;;;20.00;16.00;;;;;;7374541;19;20435;-70
2023/08/26 07:01:44;;;;;;;8.32;4.95;;;19.80;16.20;;;;;;7374085;19;20007;-70
2023/08/26 07:04:14;;;;;;;9.98;4.95;;;19.70;13.50;;;;;;7374369;19;20089;-69
2023/08/26 07:06:45;;;;;;;7.38;5.00;;;19.80;21.30;;;;;;7374562;19;20006;-68
2023/08/26 07:09:16;;;;;;;8.93;5.25;;;19.90;16.00;;;;;;7372942;19;20452;-69
2023/08/26 07:11:48;;;;;;;10.05;5.07;;;19.80;19.00;;;;;;7372759;19;20074;-70
2023/08/26 07:14:18;;;;;;;8.63;5.25;;;19.90;15.20;;;;;;7373941;19;20059;-69
2023/08/26 07:16:48;;;;;;;8.85;5.30;;;19.90;15.80;;;;;;7375049;19;20013;-69
2023/08/26 07:19:18;;;;;;;7.47;5.20;;;20.20;24.00;;;;;;7374014;19;20013;-69
2023/08/26 07:21:48;;;;;;;9.13;5.43;;;20.40;7.70;;;;;;7374894;19;20025;-68
2023/08/26 07:24:19;;;;;;;8.52;4.70;;;20.70;10.50;;;;;;7373526;19;20507;-68
2023/08/26 07:26:52;;;;;;;10.50;5.22;;;21.00;1.00;;;;;;7373726;19;20051;-68
2023/08/26 07:29:22;;;;;;;5.97;4.35;;;20.80;1.00;;;;;;7373941;19;20011;-69
2023/08/26 07:31:52;;;;;;;8.15;4.60;;;20.70;6.90;;;;;;7373246;19;20073;-69
2023/08/26 07:34:22;;;;;;;7.93;4.45;;;20.70;5.70;;;;;;7372448;19;20502;-69
2023/08/26 07:36:52;;;;;;;9.38;5.20;;;20.20;1.00;;;;;;7373926;19;20010;-69
2023/08/26 07:39:24;;;;;;;8.70;5.20;;;20.10;8.60;;;;;;7373606;19;20481;-69
2023/08/26 07:41:56;;;;;;;6.05;4.50;;;20.10;4.00;;;;;;7372537;19;20643;-68
2023/08/26 07:44:26;;;;;;;6.50;5.80;;;20.10;3.90;;;;;;7372593;19;20391;-69
2023/08/26 07:46:56;;;;;;;9.48;5.57;;;20.30;1.00;;;;;;7374153;19;20018;-68
2023/08/26 07:49:27;;;;;;;8.60;5.68;;;20.10;2.50;;;;;;7372877;19;20021;-68
2023/08/26 07:51:57;;;;;;;8.73;5.45;;;20.50;1.00;;;;;;7371784;19;20022;-69
2023/08/26 07:54:27;;;;;;;6.13;4.63;;;20.70;1.00;;;;;;7371776;19;20082;-68
2023/08/26 07:57:00;;;;;;;8.13;4.97;;;20.60;1.00;;;;;;7373294;19;20836;-68
2023/08/26 07:59:29;;;;;;;8.00;4.68;;;20.90;1.00;;;;;;7374767;19;20010;-68
2023/08/26 08:01:59;;;;;;;9.10;4.70;;;20.50;1.00;;;;;;7373346;19;20014;-68
2023/08/26 08:04:29;;;;;;;6.47;4.72;;;20.30;1.00;;;;;;7372957;19;20109;-69
2023/08/26 08:06:59;;;;;;;6.43;3.78;;;20.60;1.00;;;;;;7372348;19;20015;-69
2023/08/26 08:09:29;;;;;;;5.70;4.53;;;20.70;1.00;;;;;;7371889;19;20081;-69
2023/08/26 08:12:02;;;;;;;11.75;5.25;;;20.60;1.00;;;;;;7372712;19;20031;-68
2023/08/26 08:14:33;;;;;;;8.77;4.88;;;20.40;1.00;;;;;;7371402;19;20090;-67
2023/08/26 08:17:03;;;;;;;10.20;5.10;;;20.10;1.00;;;;;;7372804;19;20014;-69
2023/08/26 08:19:33;;;;;;;10.65;5.60;;;20.40;1.00;;;;;;7372823;19;20006;-69
2023/08/26 08:22:02;;;;;;;6.10;4.43;;;20.60;1.00;;;;;;7372004;19;20748;-68
2023/08/26 08:24:32;;;;;;;8.93;4.72;;;20.60;1.00;;;;;;7369500;19;20078;-69
2023/08/26 08:27:06;;;;;;;5.97;4.68;;;20.30;1.00;;;;;;7370954;19;20130;-69
2023/08/26 08:29:35;;;;;;;9.97;4.70;;;20.40;1.00;;;;;;7370401;19;20018;-69
2023/08/26 08:32:06;;;;;;;10.43;4.60;;;20.40;1.00;;;;;;7372331;19;20530;-69
2023/08/26 08:34:36;;;;;;;7.57;4.45;;;20.40;1.00;;;;;;7372470;19;20726;-69
2023/08/26 08:37:06;;;;;;;7.10;4.13;;;20.80;1.00;;;;;;7370118;19;20031;-69
2023/08/26 08:39:36;;;;;;;8.02;4.47;;;20.90;1.00;;;;;;7370766;19;20043;-69
2023/08/26 08:42:11;;;;;;;6.55;4.70;;;20.80;1.00;;;;;;7371759;19;20350;-69
2023/08/26 08:44:44;;;;;;;10.88;4.80;;;20.90;1.00;;;;;;7369634;19;20018;-69
2023/08/26 08:47:15;;;;;;;7.32;4.63;;;20.80;1.00;;;;;;7371747;19;20408;-69
2023/08/26 08:49:46;;;;;;;5.53;4.00;;;20.50;1.00;;;;;;7370647;19;20010;-68
2023/08/26 08:52:16;;;;;;;8.18;3.88;;;21.10;1.00;;;;;;7369202;19;20015;-68
2023/08/26 08:54:47;;;;;;;7.32;3.80;;;21.00;1.00;;;;;;7374182;19;20024;-68
2023/08/26 08:57:25;;;;;;;8.25;4.63;;;21.00;1.00;;;;;;7371418;19;20041;-70
2023/08/26 08:59:56;;;;;;;6.93;3.75;;;20.80;1.00;;;;;;7373075;19;20014;-68
2023/08/26 09:02:29;;;;;;;7.53;4.03;;;21.00;1.00;;;;;;7373313;19;20013;-68
2023/08/26 09:04:59;;;;;;;6.82;4.55;;;21.00;1.00;;;;;;7370702;19;20030;-68
2023/08/26 09:07:30;;;;;;;7.88;4.50;;;21.00;1.00;;;;;;7389052;19;20078;-68
2023/08/26 09:10:01;;;;;;;6.30;3.55;;;21.20;1.00;;;;;;7385255;19;20025;-68
2023/08/26 09:12:34;;;;;;;5.75;4.03;;;21.40;1.00;;;;;;7383079;19;20478;-68
2023/08/26 09:15:05;;;;;;;6.60;3.92;;;21.00;1.00;;;;;;7386819;19;20018;-68
2023/08/26 09:17:36;;;;;;;7.70;4.05;;;21.00;1.00;;;;;;7386069;19;20042;-68
2023/08/26 09:20:07;;;;;;;5.53;3.55;;;21.50;1.00;;;;;;7360981;19;20048;-66
2023/08/26 09:22:37;;;;;;;6.28;3.95;;;21.50;1.00;;;;;;7371355;19;20113;-67
2023/08/26 09:25:08;;;;;;;6.97;3.72;;;22.10;1.00;;;;;;7369775;19;20013;-67
2023/08/26 09:27:43;;;;;;;7.20;4.10;;;21.80;1.00;;;;;;7368624;19;20082;-67
2023/08/26 09:30:20;;;;;;;6.45;3.50;;;21.60;1.00;;;;;;7374418;19;20094;-68
2023/08/26 09:32:52;;;;;;;6.95;3.40;;;21.40;1.00;;;;;;7379087;19;20015;-67
2023/08/26 09:35:23;;;;;;;11.05;3.15;;;21.20;1.00;;;;;;7378739;19;20018;-67
2023/08/26 09:38:13;;;;;;;5.13;2.78;;;20.90;1.00;;;;;;7373006;19;20015;-67
2023/08/26 09:40:42;;;;;;;8.75;3.42;;;21.10;1.00;;;;;;7370521;19;20014;-68
2023/08/26 09:43:15;;;;;;;5.47;2.65;;;21.00;1.00;;;;;;7371310;19;20847;-68
2023/08/26 09:45:45;;;;;;;5.60;2.92;;;20.70;1.00;;;;;;7369525;19;20014;-68
2023/08/26 09:48:23;;;;;;;4.15;2.65;;;20.90;1.00;;;;;;7370745;19;20010;-69
2023/08/26 09:50:53;;;;;;;5.85;2.65;;;20.70;1.00;;;;;;7374015;19;20007;-68
2023/08/26 09:53:32;;;;;;;5.28;2.90;;;20.70;1.00;;;;;;7376275;19;20121;-68
2023/08/26 09:56:04;;;;;;;4.38;2.50;;;20.80;1.00;;;;;;6857506;19;2004804;-68
2023/08/26 09:58:37;;;;;;;4.75;2.75;;;20.70;1.00;;;;;;7370563;19;20020;-68
2023/08/26 10:01:08;;;;;;;6.43;2.50;;;20.70;1.00;;;;;;7376635;19;20010;-69
2023/08/26 10:03:40;;;;;;;3.92;2.60;;;20.70;1.00;;;;;;7378632;19;20485;-69
2023/08/26 10:06:11;;;;;;;5.88;2.58;;;20.80;1.00;;;;;;7384960;19;20022;-69
2023/08/26 10:08:44;;;;;;;6.47;3.00;;;21.00;1.00;;;;;;7384023;19;21315;-68
2023/08/26 10:11:15;;;;;;;6.15;2.47;;;20.70;1.00;;;;;;7370717;19;20086;-70
2023/08/26 10:13:50;;;;;;;5.63;3.05;;;20.90;1.00;;;;;;7373126;19;20106;-70
2023/08/26 10:16:23;;;;;;;9.40;4.53;;;21.30;1.00;;;;;;7372806;19;20019;-70
2023/08/26 10:19:04;;;;;;;5.65;3.20;;;21.40;1.00;;;;;;7378458;19;20040;-70
2023/08/26 10:21:35;;;;;;;4.72;2.42;;;21.60;1.00;;;;;;7371822;19;20011;-70
2023/08/26 10:24:05;;;;;;;4.38;2.20;;;21.80;1.00;;;;;;7374804;19;20017;-70
2023/08/26 10:26:35;;;;;;;4.38;2.22;;;21.90;1.00;;;;;;7372604;19;20754;-68
2023/08/26 10:29:09;;;;;;;6.88;2.92;;;21.90;1.00;;;;;;7372149;19;20292;-70
2023/08/26 10:31:42;;;;;;;5.28;2.47;;;21.90;1.00;;;;;;7375035;19;21300;-67
2023/08/26 10:34:16;;;;;;;4.90;2.40;;;21.50;1.00;;;;;;7377972;19;20036;-70
2023/08/26 10:36:49;;;;;;;3.53;2.13;;;21.70;1.00;;;;;;7370137;19;20715;-71
2023/08/26 10:39:21;;;;;;;6.53;2.60;;;21.60;1.00;;;;;;7365311;19;20011;-71
2023/08/26 10:42:13;;;;;;;4.22;2.20;;;21.90;1.00;;;;;;7370625;19;20044;-69
2023/08/26 10:44:50;;;;;;;3.58;2.30;;;22.40;1.00;;;;;;6860828;19;2004604;-69
2023/08/26 10:47:36;;;;;;;3.83;2.38;;;22.60;1.00;;;;;;7370279;19;20048;-69
2023/08/26 10:50:18;;;;;;;4.72;2.58;;;22.60;1.00;;;;;;6859458;19;2004680;-69
2023/08/26 10:52:53;;;;;;;10.40;2.97;;;21.70;1.00;;;;;;7371009;19;20093;-70
2023/08/26 10:55:25;;;;;;;6.65;2.72;;;22.00;1.00;;;;;;7368575;19;20472;-69
2023/08/26 10:58:16;;;;;;;4.63;2.90;;;22.10;1.00;;;;;;7369013;19;20491;-70
2023/08/26 11:00:50;;;;;;;4.45;2.67;;;21.90;1.00;;;;;;6858976;19;2004796;-69
2023/08/26 11:03:22;;;;;;;5.82;2.55;;;21.60;1.00;;;;;;7370062;19;20057;-69
2023/08/26 11:06:03;;;;;;;6.70;2.75;;;21.70;1.00;;;;;;7372144;19;20011;-69
2023/08/26 11:08:34;;;;;;;4.68;2.58;;;21.50;1.00;;;;;;7369619;19;20050;-69
2023/08/26 11:11:04;;;;;;;6.25;2.80;;;21.90;1.00;;;;;;7367789;19;20039;-68
2023/08/26 11:13:34;;;;;;;4.20;2.28;;;22.10;1.00;;;;;;7368996;19;20021;-69
2023/08/26 11:16:07;;;;;;;5.90;2.70;;;22.00;1.00;;;;;;7369357;19;20039;-68
2023/08/26 11:18:37;;;;;;;5.35;2.67;;;21.50;1.00;;;;;;7368093;19;20438;-68
2023/08/26 11:21:07;;;;;;;5.95;2.92;;;21.50;1.00;;;;;;7369147;19;20534;-70
2023/08/26 11:23:38;;;;;;;5.28;2.78;;;21.40;1.00;;;;;;7370540;19;20014;-69
2023/08/26 11:26:09;;;;;;;4.35;2.90;;;21.50;1.00;;;;;;7370807;19;20094;-70
2023/08/26 11:28:40;;;;;;;7.63;3.40;;;21.20;1.00;;;;;;7377929;19;20054;-69
2023/08/26 11:31:14;;;;;;;8.52;2.70;;;21.30;1.00;;;;;;7344140;19;20085;-69
2023/08/26 11:33:44;;;;;;;4.57;2.83;;;21.00;1.00;;;;;;7391241;19;20747;-69
2023/08/26 11:36:14;;;;;;;6.65;3.45;;;20.90;1.00;;;;;;7388552;19;20018;-70
2023/08/26 11:38:44;;;;;;;8.00;3.92;;;20.70;1.00;;;;;;7387924;19;20025;-70
2023/08/26 11:41:14;;;;;;;5.30;3.40;;;20.70;1.00;;;;;;7381897;19;20018;-69
2023/08/26 11:43:44;;;;;;;6.32;3.00;;;20.60;1.00;;;;;;7380019;19;20024;-69
2023/08/26 11:46:16;;;;;;;5.85;3.50;;;20.50;1.00;;;;;;7377951;19;20013;-69
2023/08/26 11:48:46;;;;;;;7.22;3.70;;;20.60;1.00;;;;;;7379001;19;20086;-69
2023/08/26 11:51:16;;;;;;;10.18;4.10;;;20.60;1.00;;;;;;7378877;19;20010;-70
2023/08/26 11:53:46;;;;;;;4.93;3.22;;;20.60;1.00;;;;;;7380738;19;20014;-69
2023/08/26 11:56:16;;;;;;;3.90;3.15;;;20.60;1.00;;;;;;7379483;19;20014;-69
2023/08/26 11:58:46;;;;;;;12.68;4.18;;;20.50;1.00;;;;;;7384603;19;20103;-69
2023/08/26 12:01:19;;;;;;;4.28;3.15;;;20.60;1.00;;;;;;7375078;19;20083;-69
2023/08/26 12:03:49;;;;;;;5.95;3.35;;;20.60;1.00;;;;;;7373811;19;20022;-69
2023/08/26 12:06:21;;;;;;;6.97;3.30;;;20.50;1.00;;;;;;7373473;19;20027;-69
2023/08/26 12:08:54;;;;;;;5.15;3.75;;;20.50;1.00;;;;;;7374113;19;20011;-69
2023/08/26 12:11:24;;;;;;;7.55;3.60;;;20.50;1.00;;;;;;7373148;19;20030;-69
2023/08/26 12:13:55;;;;;;;5.05;3.33;;;20.30;1.00;;;;;;7375215;19;20053;-69
2023/08/26 12:16:35;;;;;;;5.18;3.20;;;20.40;1.00;;;;;;7373659;19;20031;-68
2023/08/26 12:19:05;;;;;;;5.00;2.72;;;20.30;1.00;;;;;;7370134;19;20083;-69
2023/08/26 12:21:36;;;;;;;5.47;3.00;;;20.20;1.00;;;;;;7375611;19;20019;-69
2023/08/26 12:24:07;;;;;;;7.03;3.20;;;20.00;1.00;;;;;;7375939;19;20010;-69
2023/08/26 12:26:40;;;;;;;6.72;3.65;;;19.60;1.00;;;;;;7373621;19;20018;-68
2023/08/26 12:29:10;;;;;;;6.45;3.53;;;19.60;1.00;;;;;;7373877;19;20082;-69
2023/08/26 12:31:43;;;;;;;7.57;4.00;;;19.30;1.00;;;;;;7375890;19;20621;-66
2023/08/26 12:34:13;;;;;;;6.88;4.53;;;19.00;1.00;;;;;;7374812;19;20031;-68
2023/08/26 12:36:46;;;;;;;8.85;4.45;;;18.40;17.70;;;;;;7372030;19;20027;-68
2023/08/26 12:39:16;;;;;;;12.10;5.72;;;18.20;34.30;;;;;;7370611;19;20074;-69
2023/08/26 12:41:45;;;;;;;7.80;5.25;;;18.40;80.10;;;;;;7373831;19;20027;-68
2023/08/26 12:44:18;;;;;;;7.32;4.75;;;18.10;52.30;;;;;;7383260;19;20021;-68
2023/08/26 12:46:52;;;;;;;6.13;4.80;;;18.20;72.10;;;;;;7379108;19;20717;-69
2023/08/26 12:49:21;;;;;;;9.68;5.60;;;18.10;56.40;;;;;;7376058;19;20510;-68
2023/08/26 12:51:57;;;;;;;6.57;5.40;;;18.40;65.50;;;;;;7365939;19;20045;-68
2023/08/26 12:54:27;;;;;;;6.70;5.38;;;18.30;56.60;;;;;;7373988;19;20046;-69
2023/08/26 12:56:57;;;;;;;8.23;5.88;;;18.10;64.40;;;;;;7380886;19;20401;-69
2023/08/26 12:59:27;;;;;;;8.05;6.00;;;18.10;76.20;;;;;;7376290;19;20036;-69
2023/08/26 13:02:00;;;;;;;7.32;5.55;;;18.00;90.70;;;;;;7384386;19;20471;-68
2023/08/26 13:04:30;;;;;;;8.00;5.78;;;18.10;90.30;;;;;;7376213;19;20018;-68
2023/08/26 13:07:00;;;;;;;8.80;5.82;;;17.90;97.20;;;;;;7378168;19;20014;-68